»·PEaware :: FJS1399 KTEX-KABQ

FJS1399 :: KTEX-KABQ

FLIGHT INFORMATION

Flight Status: Arrived
Operator: Unknown
More flights by this operator :: More flights under this callsign
Pilot: David C. (16084)
Aircraft: ECLIPSE 500
(EA50)
More flights by this aircraft type
Origin: KTEX Telluride Regl
United States
Destination: KABQ Albuquerque Intl Sunport
United States
More flights between these airports :: More routes between these airports
Route: DRO ROSEI LOWBO3
File this flight plan on PilotEdge
Remarks: Will Pick Up IFR while in the air.
Altitude:
(Current/Filed)
21,000ft
Speed:
(Current/Filed)
354kts
Departed: 06-Aug-18 11:21 AM
Arrived: 06-Aug-18 12:02 PM
Distance/Time
Traveled:
186nm/0:40
Distance/Time
To Go:
Arrived

Flight Plot

Page will automatically refresh every two minutes.

Flight plan parsing failed; only flown route is shown


Map Options




Map Legend


Flown Route
Filed Route
Departure Airport
Arrival Airport
Navaid (VOR, NDB)
Fix

Horizontal Profiles

Position Reports

Time Latitude Longitude Heading Altitude Ground
Speed
06-Aug-18 11:01 37.954001 -107.901255 192 9081ft 0kts
06-Aug-18 11:02 37.954001 -107.901255 192 9081ft 0kts
06-Aug-18 11:03 37.954001 -107.901255 192 9081ft 0kts
06-Aug-18 11:04 37.954001 -107.901255 192 9081ft 0kts
06-Aug-18 11:05 37.954001 -107.901255 192 9081ft 0kts
06-Aug-18 11:06 37.954001 -107.901255 192 9081ft 0kts
06-Aug-18 11:07 37.954001 -107.901255 192 9081ft 0kts
06-Aug-18 11:08 37.954001 -107.901255 192 9081ft 0kts
06-Aug-18 11:09 37.954001 -107.901255 192 9081ft 0kts
06-Aug-18 11:10 37.954001 -107.901255 192 9081ft 0kts
06-Aug-18 11:11 37.954001 -107.901255 192 9081ft 0kts
06-Aug-18 11:12 37.954001 -107.901255 192 9081ft 0kts
06-Aug-18 11:13 37.954001 -107.901255 192 9081ft 0kts
06-Aug-18 11:14 37.954001 -107.901255 192 9081ft 0kts
06-Aug-18 11:15 37.954001 -107.901255 192 9081ft 0kts
06-Aug-18 11:16 37.954001 -107.901255 192 9081ft 0kts
06-Aug-18 11:17 37.953831 -107.901304 192 9081ft 4kts
06-Aug-18 11:18 37.953044 -107.899646 104 9081ft 7kts
06-Aug-18 11:19 37.952211 -107.896712 168 9081ft 6kts
06-Aug-18 11:20 37.952113 -107.896710 186 9081ft 0kts
06-Aug-18 11:21 37.951691 -107.898469 284 9081ft 38kts
06-Aug-18 11:22 37.958493 -107.933483 279 9745ft 134kts
06-Aug-18 11:23 37.966967 -107.982611 283 11477ft 151kts
06-Aug-18 11:24 37.975749 -108.037937 277 13005ft 181kts
06-Aug-18 11:25 37.979848 -108.105786 235 14754ft 202kts
06-Aug-18 11:26 37.924507 -108.101877 168 16687ft 220kts
06-Aug-18 11:27 37.864024 -108.079433 168 17505ft 268kts
06-Aug-18 11:28 37.784141 -108.049754 168 17493ft 329kts
06-Aug-18 11:29 37.691700 -108.016588 168 17490ft 352kts
06-Aug-18 11:30 37.604071 -107.977093 162 19868ft 311kts
06-Aug-18 11:31 37.527600 -107.937797 163 21437ft 307kts
06-Aug-18 11:32 37.442784 -107.894918 162 21357ft 348kts
06-Aug-18 11:33 37.350003 -107.848145 162 21340ft 370kts
06-Aug-18 11:34 37.252649 -107.799241 162 21339ft 384kts
06-Aug-18 11:35 37.153066 -107.751952 174 21328ft 378kts
06-Aug-18 11:36 37.049067 -107.733245 175 21339ft 380kts
06-Aug-18 11:37 36.961286 -107.718832 175 21339ft 382kts
06-Aug-18 11:38 36.856400 -107.701853 175 21339ft 382kts
06-Aug-18 11:39 36.733893 -107.682252 175 21321ft 382kts
06-Aug-18 11:40 36.628501 -107.665471 175 21290ft 382kts
06-Aug-18 11:41 36.541025 -107.651580 175 21293ft 382kts
06-Aug-18 11:42 36.435711 -107.634897 175 21291ft 382kts
06-Aug-18 11:43 36.330559 -107.618288 175 21265ft 382kts
06-Aug-18 11:44 36.208105 -107.598812 175 21257ft 382kts
06-Aug-18 11:45 36.121341 -107.578167 168 21273ft 384kts
06-Aug-18 11:46 36.017699 -107.547028 168 21338ft 385kts
06-Aug-18 11:47 35.915257 -107.517187 169 21358ft 385kts
06-Aug-18 11:48 35.813259 -107.485309 167 21352ft 385kts
06-Aug-18 11:49 35.710259 -107.451941 167 21116ft 384kts
06-Aug-18 11:50 35.609925 -107.419857 167 19665ft 372kts
06-Aug-18 11:51 35.511600 -107.388493 167 18182ft 364kts
06-Aug-18 11:52 35.421881 -107.344858 138 16722ft 360kts
06-Aug-18 11:53 35.366833 -107.253121 123 14925ft 326kts
06-Aug-18 11:54 35.319823 -107.161750 122 12943ft 316kts
06-Aug-18 11:55 35.273097 -107.082985 136 11077ft 306kts
06-Aug-18 11:56 35.212423 -107.013067 137 9976ft 301kts
06-Aug-18 11:57 35.152381 -106.944167 135 9176ft 285kts
06-Aug-18 11:58 35.104297 -106.885979 130 9029ft 235kts
06-Aug-18 11:59 35.061648 -106.824581 129 8138ft 230kts
06-Aug-18 12:00 35.044782 -106.754210 88 6888ft 220kts
06-Aug-18 12:01 35.044863 -106.693316 89 6508ft 151kts
06-Aug-18 12:02 35.044552 -106.639682 89 5753ft 155kts
06-Aug-18 12:03 35.044243 -106.604148 91 5357ft 30kts
06-Aug-18 12:04 35.043477 -106.602632 204 5357ft 0kts
06-Aug-18 12:05 35.043477 -106.602632 204 5357ft 0kts
06-Aug-18 12:06 35.043477 -106.602632 204 5357ft 0kts
06-Aug-18 12:07 35.042400 -106.606645 268 5357ft 21kts
06-Aug-18 12:08 35.042095 -106.613790 190 5357ft 16kts
06-Aug-18 12:09 35.036524 -106.615489 231 5357ft 27kts
06-Aug-18 12:10 35.038096 -106.616466 343 5357ft 9kts
06-Aug-18 12:11 35.037872 -106.616207 199 5357ft 0kts

Navigation Log

Ident Type
Flight plan parsing failed, navigation log unavailable